X  Κλείσε Στοιχεία αεροπορικών μετεωρολογικών δεδομένων METAR     LGRX Patras Araxos Agamemnon Airport
Θερμοκρασία
28°C Θερμοκρασία
17°C Σημείο δρόσου
51% Σχετ. υγρασία



Άνεμος
0 ΧΛΜ/Ω
0 ΜΑΩ
0 Μ/Δ
0 ΚΟΜΒΟΙ



Νηνεμία
Β
Τρέχουσες συνθήκες

Αίθριος Αίθριος
Πίεση 1013.88 (hPa) - 29.94 (inHg)
Ορατότητα 6 (μίλι) - 9.7 (χλμ)
Aεροδρόμιο
Κωδικός αεροδρομίου LGRX

Τοποθεσία: Patras Araxos Agamemnon Airport
Απόσταση: 41 (χλμ)

Metar:
LGRX 170720Z 00000KT CAVOK 28/17 Q1014

Ώρα: 17-06-2024 10:20 EEST